Time;durP1;ratioP1;P1;durP2;ratioP2;P2;SDS_P1;SDS_P2;PMS_P1;PMS_P2;Temp;Humidity;BMP_temperature;BMP_pressure;BME280_temperature;BME280_humidity;BME280_pressure;Samples;Min_cycle;Max_cycle;Signal;HPM_P1;HPM_P2
2022/01/11 00:00:37;;;;;;;68.35;23.52;;;;;;;-0.58;100.00;103064.63;4994779;28;20022;-84
2022/01/11 00:03:05;;;;;;;59.25;22.63;;;;;;;-0.57;100.00;103062.94;4995115;28;20164;-83
2022/01/11 00:05:40;;;;;;;59.20;22.73;;;;;;;-0.53;100.00;103077.38;4995143;28;20109;-84
2022/01/11 00:08:08;;;;;;;53.42;22.52;;;;;;;-0.51;100.00;103078.28;4994952;28;20157;-85
2022/01/11 00:10:46;;;;;;;70.07;22.38;;;;;;;-0.63;100.00;103068.75;4994874;28;20478;-81
2022/01/11 00:13:11;;;;;;;58.78;23.27;;;;;;;-0.60;100.00;103077.25;4994777;28;20034;-84
2022/01/11 00:15:37;;;;;;;75.38;23.95;;;;;;;-0.63;100.00;103087.38;4994531;28;20030;-82
2022/01/11 00:18:02;;;;;;;59.28;22.10;;;;;;;-0.60;100.00;103094.16;4994863;28;20034;-81
2022/01/11 00:20:28;;;;;;;58.00;23.50;;;;;;;-0.60;100.00;103091.63;4995179;28;20058;-82
2022/01/11 00:25:27;;;;;;;64.68;25.52;;;;;;;-0.53;100.00;103090.94;4994805;28;20058;-84
2022/01/11 00:27:53;;;;;;;58.83;25.63;;;;;;;-0.53;100.00;103087.53;4994436;28;20034;-83
2022/01/11 00:30:19;;;;;;;58.72;24.02;;;;;;;-0.57;100.00;103080.72;4994275;28;20390;-80
2022/01/11 00:32:50;;;;;;;58.67;24.90;;;;;;;-0.47;100.00;103092.75;4994523;28;20034;-80
2022/01/11 00:35:17;;;;;;;53.08;23.70;;;;;;;-0.40;100.00;103097.09;5006623;28;20050;-81
2022/01/11 00:37:44;;;;;;;46.83;23.17;;;;;;;-0.46;100.00;103097.84;5014001;28;20125;-83
2022/01/11 00:40:10;;;;;;;45.80;21.13;;;;;;;-0.47;100.00;103100.34;5013886;28;20025;-82
2022/01/11 00:42:36;;;;;;;43.42;19.92;;;;;;;-0.82;100.00;103037.09;5013188;28;20041;-79
2022/01/11 00:45:07;;;;;;;48.53;21.58;;;;;;;-0.44;100.00;103080.97;4995931;28;20122;-83
2022/01/11 00:47:32;;;;;;;46.13;20.93;;;;;;;-0.54;100.00;103052.84;5013716;28;20034;-80
2022/01/11 00:49:58;;;;;;;47.45;20.90;;;;;;;-0.46;100.00;103082.63;5013882;28;20101;-81
2022/01/11 00:52:23;;;;;;;49.42;21.33;;;;;;;-0.49;100.00;103074.06;5013938;28;20417;-81
2022/01/11 00:54:49;;;;;;;49.00;21.65;;;;;;;-0.64;100.00;103057.75;5013998;28;20382;-82
2022/01/11 00:57:14;;;;;;;47.25;21.63;;;;;;;-0.51;100.00;103085.88;5013607;28;20026;-83
2022/01/11 00:59:40;;;;;;;44.70;19.90;;;;;;;-0.73;100.00;103057.56;5013784;28;20373;-84
2022/01/11 01:02:06;;;;;;;46.97;21.67;;;;;;;-0.52;100.00;103100.25;5013510;28;20025;-84
2022/01/11 01:04:32;;;;;;;48.13;22.80;;;;;;;-0.58;100.00;103090.00;5013653;28;20017;-84
2022/01/11 01:06:58;;;;;;;49.95;23.10;;;;;;;-0.50;100.00;103102.81;5013933;28;20014;-84
2022/01/11 01:09:27;;;;;;;48.40;22.10;;;;;;;-0.50;100.00;103098.59;5013644;28;20534;-84
2022/01/11 01:11:53;;;;;;;44.72;19.98;;;;;;;-0.51;100.00;103091.81;5013482;28;20025;-80
2022/01/11 01:14:18;;;;;;;45.45;21.55;;;;;;;-0.43;100.00;103094.50;5013548;28;20026;-85
2022/01/11 01:16:43;;;;;;;45.05;20.98;;;;;;;-0.53;100.00;103069.78;5013593;28;20386;-81
2022/01/11 01:19:09;;;;;;;45.88;21.25;;;;;;;-0.49;100.00;103084.22;5013585;28;20100;-74
2022/01/11 01:21:38;;;;;;;43.13;19.45;;;;;;;-0.50;100.00;103080.84;5013530;28;20022;-81
2022/01/11 01:24:10;;;;;;;46.35;21.05;;;;;;;-0.53;100.00;103085.00;5013404;28;20026;-85
2022/01/11 01:26:36;;;;;;;48.30;22.42;;;;;;;-0.53;100.00;103100.22;5013366;28;20422;-85
2022/01/11 01:29:02;;;;;;;50.78;22.00;;;;;;;-0.52;100.00;103101.94;4995648;28;20053;-85
2022/01/11 01:31:28;;;;;;;47.83;21.15;;;;;;;-0.64;100.00;103084.78;5013110;28;20084;-77
2022/01/11 01:33:54;;;;;;;47.95;23.15;;;;;;;-0.50;100.00;103103.66;5013121;28;20022;-84
2022/01/11 01:36:20;;;;;;;50.25;22.83;;;;;;;-0.64;100.00;103070.44;5013239;28;20385;-84
2022/01/11 01:38:45;;;;;;;52.38;21.70;;;;;;;-0.49;100.00;103095.25;5013144;28;20066;-82
2022/01/11 01:41:16;;;;;;;46.35;21.85;;;;;;;-0.52;100.00;103099.41;5013210;28;20053;-83
2022/01/11 01:43:43;;;;;;;50.33;21.88;;;;;;;-0.47;100.00;103098.69;5013087;28;20028;-85
2022/01/11 01:46:09;;;;;;;46.53;21.75;;;;;;;-0.51;99.99;103101.97;5012995;28;20022;-85
2022/01/11 01:48:38;;;;;;;51.40;23.42;;;;;;;-0.50;100.00;103096.06;5012844;28;20026;-83
2022/01/11 01:51:06;;;;;;;50.85;22.90;;;;;;;-0.47;100.00;103095.28;5013018;28;20462;-81
2022/01/11 01:53:33;;;;;;;49.80;22.70;;;;;;;-0.55;100.00;103086.66;5012952;28;20026;-85
2022/01/11 01:55:58;;;;;;;49.72;22.55;;;;;;;-0.46;100.00;103094.44;5012990;28;20026;-83
2022/01/11 01:58:25;;;;;;;50.55;22.20;;;;;;;-0.51;100.00;103094.34;5013015;28;20080;-84
2022/01/11 02:00:54;;;;;;;57.45;22.58;;;;;;;-0.61;100.00;103085.69;5013004;28;20065;-84
2022/01/11 02:03:26;;;;;;;55.15;23.38;;;;;;;-0.50;100.00;103098.59;5012732;28;20030;-82
2022/01/11 02:05:53;;;;;;;49.55;20.73;;;;;;;-0.46;99.96;103100.38;5012902;28;20033;-84
2022/01/11 02:08:19;;;;;;;47.85;22.35;;;;;;;-0.47;99.97;103098.69;5012662;28;20025;-84
2022/01/11 02:10:45;;;;;;;51.17;22.58;;;;;;;-0.53;100.00;103103.63;5012743;28;20026;-85
2022/01/11 02:13:10;;;;;;;48.53;20.80;;;;;;;-0.51;99.86;103112.13;5012848;28;20030;-84
2022/01/11 02:15:37;;;;;;;50.38;21.63;;;;;;;-0.57;100.00;103099.31;5012709;28;20084;-84
2022/01/11 02:18:13;;;;;;;49.65;21.65;;;;;;;-0.55;99.80;103109.50;5012840;28;20433;-85
2022/01/11 02:20:44;;;;;;;45.22;20.70;;;;;;;-0.83;99.85;103064.97;5012638;28;20030;-85
2022/01/11 02:23:10;;;;;;;47.65;21.77;;;;;;;-0.55;100.00;103117.97;5012635;28;20041;-85
2022/01/11 02:25:36;;;;;;;47.45;21.17;;;;;;;-0.88;99.65;103075.88;5012557;28;20026;-85
2022/01/11 02:28:03;;;;;;;48.28;20.35;;;;;;;-0.76;99.64;103094.72;5012781;28;20030;-78
2022/01/11 02:30:32;;;;;;;48.45;22.13;;;;;;;-0.72;99.77;103111.69;5012774;28;20022;-84
2022/01/11 02:32:58;;;;;;;48.78;21.92;;;;;;;-0.68;100.00;103132.09;5012574;28;20053;-85
2022/01/11 02:35:24;;;;;;;49.97;22.77;;;;;;;-0.84;100.00;103114.84;5012375;28;20117;-85
2022/01/11 02:37:49;;;;;;;54.03;22.42;;;;;;;-0.74;100.00;103138.72;5012540;28;20038;-85
2022/01/11 02:40:15;;;;;;;54.85;23.60;;;;;;;-0.97;100.00;103100.19;5012415;28;20025;-84
2022/01/11 02:42:41;;;;;;;48.70;21.73;;;;;;;-0.70;100.00;103143.88;5012658;28;20034;-84
2022/01/11 02:45:19;;;;;;;53.13;23.40;;;;;;;-0.68;100.00;103143.94;5012571;28;20394;-84
2022/01/11 02:47:48;;;;;;;56.65;23.08;;;;;;;-0.71;100.00;103146.38;5012285;28;20108;-84
2022/01/11 02:50:15;;;;;;;50.35;23.02;;;;;;;-0.70;100.00;103153.16;5012198;28;20042;-84
2022/01/11 02:52:41;;;;;;;53.97;23.05;;;;;;;-0.68;100.00;103143.94;5012347;28;20026;-81
2022/01/11 02:55:13;;;;;;;56.78;23.10;;;;;;;-0.67;100.00;103136.34;5012356;28;20093;-84
2022/01/11 02:57:38;;;;;;;54.45;23.02;;;;;;;-0.61;100.00;103150.81;5012387;28;20061;-84
2022/01/11 03:00:07;;;;;;;57.67;23.50;;;;;;;-0.64;100.00;103159.25;5012565;28;20030;-84
2022/01/11 03:02:33;;;;;;;52.28;22.85;;;;;;;-0.79;100.00;103132.69;5012245;28;20030;-83
2022/01/11 03:04:58;;;;;;;55.33;24.00;;;;;;;-0.64;100.00;103153.31;5012297;28;20034;-85
2022/01/11 03:07:23;;;;;;;51.72;22.85;;;;;;;-0.67;100.00;103150.72;5014490;28;20026;-84
2022/01/11 03:10:10;;;;;;;55.08;23.85;;;;;;;-0.68;100.00;103154.09;5015640;28;20065;-84
2022/01/11 03:12:36;;;;;;;52.83;23.10;;;;;;;-0.77;99.90;103143.75;5015765;28;20117;-84
2022/01/11 03:15:02;;;;;;;49.90;23.20;;;;;;;-0.90;100.00;103118.09;5015707;28;20105;-81
2022/01/11 03:17:27;;;;;;;52.08;23.00;;;;;;;-0.81;100.00;103131.78;5015449;28;20025;-85
2022/01/11 03:19:53;;;;;;;52.47;23.65;;;;;;;-0.90;100.00;103125.69;5015444;28;20127;-84
2022/01/11 03:22:19;;;;;;;58.20;24.05;;;;;;;-0.99;100.00;103112.81;5015586;28;20018;-84
2022/01/11 03:24:44;;;;;;;53.60;23.40;;;;;;;-0.95;100.00;103116.31;5015709;28;20152;-85
2022/01/11 03:27:10;;;;;;;54.55;23.85;;;;;;;-0.79;100.00;103135.22;5015536;28;20022;-84
2022/01/11 03:29:37;;;;;;;54.53;24.17;;;;;;;-0.74;100.00;103146.31;5015372;28;20034;-82
2022/01/11 03:32:04;;;;;;;54.63;24.38;;;;;;;-0.71;100.00;103148.91;5015444;28;20481;-85
2022/01/11 03:34:30;;;;;;;56.45;25.60;;;;;;;-0.79;100.00;103136.06;5015131;28;20046;-84
2022/01/11 03:36:57;;;;;;;57.50;26.15;;;;;;;-0.68;100.00;103143.94;5015086;28;20120;-83
2022/01/11 03:39:23;;;;;;;57.88;24.63;;;;;;;-0.70;100.00;103137.94;5015377;28;20076;-83
2022/01/11 03:41:49;;;;;;;56.75;24.73;;;;;;;-0.71;100.00;103142.16;5015258;28;20026;-84
2022/01/11 03:44:14;;;;;;;59.22;24.75;;;;;;;-0.71;100.00;103141.31;5013948;28;20030;-83
2022/01/11 03:46:39;;;;;;;56.85;25.13;;;;;;;-0.80;100.00;103124.22;5015052;28;20026;-82
2022/01/11 03:49:05;;;;;;;52.08;23.40;;;;;;;-0.72;99.89;103144.69;5014613;28;20374;-84
2022/01/11 03:51:33;;;;;;;56.42;24.70;;;;;;;-0.87;99.98;103123.25;4997335;28;20030;-84
2022/01/11 03:54:08;;;;;;;56.28;25.83;;;;;;;-0.71;100.00;103144.69;5014994;28;20060;-85
2022/01/11 03:56:34;;;;;;;54.65;22.95;;;;;;;-0.73;100.00;103132.81;4997327;28;20037;-84
2022/01/11 03:59:05;;;;;;;56.28;24.52;;;;;;;-0.69;100.00;103149.81;5014978;28;20029;-84
2022/01/11 04:01:31;;;;;;;59.22;24.60;;;;;;;-0.77;99.89;103133.59;5015004;28;20029;-84
2022/01/11 04:03:56;;;;;;;57.28;26.10;;;;;;;-0.71;99.94;103154.00;4996980;28;20022;-84
2022/01/11 04:06:22;;;;;;;58.50;25.70;;;;;;;-0.71;99.76;103165.00;5014414;28;20050;-85
2022/01/11 04:08:47;;;;;;;55.70;23.95;;;;;;;-0.73;99.73;103159.03;5014567;28;20033;-85
2022/01/11 04:11:13;;;;;;;52.10;25.20;;;;;;;-0.75;99.89;103158.16;5014769;28;20029;-82
2022/01/11 04:13:39;;;;;;;58.25;25.15;;;;;;;-0.75;99.87;103155.63;5014495;28;20030;-85
2022/01/11 04:16:05;;;;;;;54.67;24.42;;;;;;;-0.74;99.91;103161.56;5014583;28;20542;-84
2022/01/11 04:18:30;;;;;;;51.67;23.25;;;;;;;-0.81;99.67;103159.69;4995182;28;20117;-85
2022/01/11 04:20:56;;;;;;;54.88;25.25;;;;;;;-0.93;99.37;103151.00;5014139;28;20048;-85
2022/01/11 04:23:23;;;;;;;52.60;23.85;;;;;;;-1.16;99.64;103121.75;5014525;28;20096;-84
2022/01/11 04:25:49;;;;;;;53.08;24.10;;;;;;;-0.97;99.95;103158.53;5014287;28;20053;-85
2022/01/11 04:28:14;;;;;;;55.38;24.25;;;;;;;-1.01;100.00;103165.19;5012985;28;20153;-84
2022/01/11 04:30:39;;;;;;;52.80;24.55;;;;;;;-1.00;100.00;103164.38;5014323;28;20378;-85
2022/01/11 04:33:05;;;;;;;57.22;24.60;;;;;;;-1.04;100.00;103157.53;5014241;28;20068;-84
2022/01/11 04:35:31;;;;;;;55.47;24.80;;;;;;;-0.97;100.00;103169.53;5013826;28;20382;-84
2022/01/11 04:37:57;;;;;;;59.92;26.27;;;;;;;-0.99;100.00;103172.81;5013992;28;20041;-84
2022/01/11 04:40:22;;;;;;;58.72;26.40;;;;;;;-1.02;100.00;103157.56;5014367;28;20029;-85
2022/01/11 04:42:48;;;;;;;58.78;26.48;;;;;;;-1.03;100.00;103151.63;5013907;28;20377;-85
2022/01/11 04:45:14;;;;;;;59.35;26.75;;;;;;;-0.85;100.00;103180.75;5013990;28;20054;-85
2022/01/11 04:47:40;;;;;;;59.67;28.25;;;;;;;-0.89;100.00;103172.22;5013820;28;20113;-85
2022/01/11 04:50:08;;;;;;;60.33;26.92;;;;;;;-0.88;100.00;103172.28;5013681;28;20109;-81
2022/01/11 04:52:34;;;;;;;65.47;28.88;;;;;;;-1.07;100.00;103149.84;5013752;28;20093;-84
2022/01/11 04:54:59;;;;;;;64.85;27.20;;;;;;;-1.06;100.00;103149.03;5013784;28;20026;-84
2022/01/11 04:57:25;;;;;;;66.35;28.40;;;;;;;-1.02;100.00;103153.34;5013839;28;20025;-79
2022/01/11 04:59:50;;;;;;;59.47;27.98;;;;;;;-1.01;100.00;103164.34;5013624;28;20022;-82
2022/01/11 05:02:15;;;;;;;59.63;26.55;;;;;;;-1.02;100.00;103162.63;5013825;28;20119;-82
2022/01/11 05:04:41;;;;;;;57.70;26.35;;;;;;;-1.10;100.00;103167.53;5013740;28;20084;-83
2022/01/11 05:07:06;;;;;;;59.83;26.33;;;;;;;-1.32;100.00;103145.03;5013392;28;20532;-83
2022/01/11 05:09:31;;;;;;;64.47;27.55;;;;;;;-1.16;100.00;103170.78;5013333;28;20468;-84
2022/01/11 05:11:57;;;;;;;63.47;27.13;;;;;;;-1.17;100.00;103165.69;5013544;28;20033;-84
2022/01/11 05:14:22;;;;;;;66.97;27.48;;;;;;;-1.29;100.00;103147.63;5013416;28;20065;-83
2022/01/11 05:16:47;;;;;;;64.88;27.85;;;;;;;-1.47;100.00;103122.75;5013537;28;20033;-85
2022/01/11 05:19:13;;;;;;;68.43;28.60;;;;;;;-1.21;100.00;103166.41;5013397;28;20480;-83
2022/01/11 05:21:40;;;;;;;62.20;26.83;;;;;;;-1.23;100.00;103163.00;5013145;28;20038;-83
2022/01/11 05:24:06;;;;;;;67.80;28.63;;;;;;;-1.28;100.00;103151.88;5013034;28;20158;-83
2022/01/11 05:26:32;;;;;;;60.50;27.35;;;;;;;-1.31;100.00;103155.22;5013483;28;20029;-82
2022/01/11 05:28:58;;;;;;;68.80;28.85;;;;;;;-1.41;100.00;103130.47;4994910;28;20096;-83
2022/01/11 05:31:24;;;;;;;69.10;28.35;;;;;;;-1.33;100.00;103164.47;4995960;28;20056;-82
2022/01/11 05:33:49;;;;;;;62.88;28.23;;;;;;;-1.49;100.00;103150.56;4995226;28;20470;-82
2022/01/11 05:36:14;;;;;;;71.25;30.27;;;;;;;-1.48;100.00;103157.34;5012827;28;20053;-84
2022/01/11 05:38:40;;;;;;;68.47;29.00;;;;;;;-1.49;100.00;103164.91;5012937;28;20116;-84
2022/01/11 05:41:06;;;;;;;72.53;29.63;;;;;;;-1.56;100.00;103153.78;5012933;28;20026;-84
2022/01/11 05:43:31;;;;;;;72.18;30.20;;;;;;;-1.53;100.00;103165.66;5013226;28;20109;-77
2022/01/11 05:45:56;;;;;;;71.38;29.42;;;;;;;-1.57;100.00;103167.28;5013019;28;20017;-84
2022/01/11 05:48:22;;;;;;;67.30;29.45;;;;;;;-1.67;100.00;103154.31;5012939;28;20030;-84
2022/01/11 05:50:48;;;;;;;70.28;29.60;;;;;;;-1.62;100.00;103167.97;5012866;28;20029;-83
2022/01/11 05:53:14;;;;;;;68.35;28.27;;;;;;;-1.64;100.00;103179.75;5012828;28;20382;-84
2022/01/11 05:55:39;;;;;;;80.10;31.45;;;;;;;-1.66;100.00;103177.19;5012764;28;20026;-84
2022/01/11 05:58:05;;;;;;;73.72;30.77;;;;;;;-1.76;100.00;103167.63;5012994;28;20022;-83
2022/01/11 06:00:30;;;;;;;73.95;30.15;;;;;;;-1.67;100.00;103184.72;5013005;28;20094;-84
2022/01/11 06:02:58;;;;;;;68.30;29.60;;;;;;;-1.69;100.00;103187.22;5012790;28;20026;-82
2022/01/11 06:05:24;;;;;;;77.97;31.88;;;;;;;-1.70;100.00;103197.31;5012821;28;21033;-82
2022/01/11 06:07:49;;;;;;;71.15;30.38;;;;;;;-1.78;100.00;103189.50;5012636;28;20101;-83
2022/01/11 06:10:15;;;;;;;70.53;30.00;;;;;;;-1.76;100.00;103208.16;5012690;28;20064;-84
2022/01/11 06:12:41;;;;;;;72.25;29.95;;;;;;;-1.81;100.00;103208.03;5012688;28;20450;-83
2022/01/11 06:15:06;;;;;;;75.38;30.08;;;;;;;-1.84;100.00;103212.16;5012685;28;20030;-84
2022/01/11 06:17:32;;;;;;;76.45;31.67;;;;;;;-1.83;100.00;103216.41;5012861;28;20029;-83
2022/01/11 06:19:57;;;;;;;73.50;30.17;;;;;;;-1.95;100.00;103200.88;4994504;28;20042;-82
2022/01/11 06:22:24;;;;;;;76.15;30.70;;;;;;;-1.89;100.00;103218.75;5012518;28;20029;-82
2022/01/11 06:24:49;;;;;;;70.50;30.23;;;;;;;-2.03;100.00;103198.13;5012585;28;20100;-83
2022/01/11 06:27:15;;;;;;;76.60;31.23;;;;;;;-2.16;100.00;103188.50;5012682;28;20097;-84
2022/01/11 06:29:40;;;;;;;73.70;30.25;;;;;;;-2.07;100.00;103203.91;5012501;28;20069;-83
2022/01/11 06:32:06;;;;;;;68.68;29.77;;;;;;;-2.06;100.00;103210.72;5012474;28;20022;-83
2022/01/11 06:34:31;;;;;;;68.50;28.63;;;;;;;-1.97;100.00;103223.59;5012455;28;20022;-82
2022/01/11 06:36:59;;;;;;;75.40;30.00;;;;;;;-2.08;100.00;103208.13;5012072;28;20042;-85
2022/01/11 06:39:25;;;;;;;73.28;30.02;;;;;;;-1.96;100.00;103234.63;5012639;28;20457;-83
2022/01/11 06:41:50;;;;;;;68.00;29.17;;;;;;;-2.06;100.00;103215.78;5013843;28;20054;-83
2022/01/11 06:44:16;;;;;;;79.40;28.88;;;;;;;-1.98;100.00;103233.69;5016134;28;20121;-80
2022/01/11 06:46:41;;;;;;;67.45;29.13;;;;;;;-2.11;100.00;103215.66;5016422;28;20021;-81
2022/01/11 06:49:07;;;;;;;68.43;30.13;;;;;;;-2.00;100.00;103241.25;5015987;28;20065;-82
2022/01/11 06:51:32;;;;;;;70.47;29.52;;;;;;;-2.02;100.00;103248.81;5016530;28;20053;-82
2022/01/11 06:53:57;;;;;;;72.20;29.55;;;;;;;-2.24;100.00;103208.53;5015868;28;20334;-84
2022/01/11 06:56:24;;;;;;;77.68;30.75;;;;;;;-2.02;100.00;103250.50;5016010;28;20077;-83
2022/01/11 06:58:49;;;;;;;69.32;29.90;;;;;;;-2.02;100.00;103246.28;5015948;28;20500;-82
2022/01/11 07:01:15;;;;;;;70.47;30.08;;;;;;;-2.05;100.00;103240.28;5015893;28;20026;-84
2022/01/11 07:03:40;;;;;;;67.65;28.40;;;;;;;-2.37;100.00;103183.69;5015804;28;20022;-83
2022/01/11 07:06:05;;;;;;;68.82;29.52;;;;;;;-2.09;100.00;103235.94;5015712;28;20025;-82
2022/01/11 07:08:31;;;;;;;63.78;28.30;;;;;;;-2.22;100.00;103217.03;5015666;28;20113;-84
2022/01/11 07:10:56;;;;;;;70.05;28.40;;;;;;;-2.09;100.00;103243.53;5015675;28;20386;-81
2022/01/11 07:13:22;;;;;;;66.82;27.42;;;;;;;-2.29;100.00;103225.25;5015439;28;20026;-83
2022/01/11 07:15:47;;;;;;;72.22;27.92;;;;;;;-2.24;100.00;103236.38;5015422;28;20041;-83
2022/01/11 07:18:13;;;;;;;66.55;28.63;;;;;;;-2.20;100.00;103247.44;5015638;28;20025;-83
2022/01/11 07:20:42;;;;;;;69.72;28.65;;;;;;;-2.10;100.00;103267.13;5015452;28;20036;-83
2022/01/11 07:23:08;;;;;;;61.30;27.60;;;;;;;-2.08;100.00;103270.56;5015407;28;20428;-84
2022/01/11 07:25:33;;;;;;;67.70;28.77;;;;;;;-2.21;100.00;103243.19;5015575;28;20069;-84
2022/01/11 07:27:59;;;;;;;69.05;28.45;;;;;;;-2.13;100.00;103252.72;5015298;28;20037;-81
2022/01/11 07:30:25;;;;;;;66.10;29.70;;;;;;;-2.09;100.00;103271.38;5015149;28;20485;-82
2022/01/11 07:32:50;;;;;;;63.17;28.48;;;;;;;-2.09;100.00;103271.38;5015259;28;20029;-83
2022/01/11 07:35:16;;;;;;;62.95;28.85;;;;;;;-2.08;100.00;103285.75;5015173;28;20038;-75
2022/01/11 07:37:42;;;;;;;64.75;28.73;;;;;;;-2.08;100.00;103283.22;5015153;28;20026;-74
2022/01/11 07:40:08;;;;;;;66.45;27.77;;;;;;;-2.10;100.00;103290.78;5014186;28;20385;-71
2022/01/11 07:42:33;;;;;;;61.28;27.88;;;;;;;-2.05;100.00;103291.78;5015921;28;20096;-72
2022/01/11 07:44:58;;;;;;;66.10;28.45;;;;;;;-2.14;100.00;103272.94;5014992;28;20513;-72
2022/01/11 07:47:24;;;;;;;63.42;28.50;;;;;;;-2.05;100.00;103294.31;4997493;28;20434;-73
2022/01/11 07:49:49;;;;;;;60.85;28.25;;;;;;;-2.18;100.00;103269.44;5014931;28;20061;-72
2022/01/11 07:52:15;;;;;;;59.20;26.33;;;;;;;-2.03;100.00;103296.88;5014850;28;20473;-72
2022/01/11 07:54:41;;;;;;;61.58;27.63;;;;;;;-2.09;100.00;103286.56;5014585;28;20393;-75
2022/01/11 07:57:07;;;;;;;62.85;29.38;;;;;;;-1.98;100.00;103297.00;5014828;28;20021;-77
2022/01/11 07:59:32;;;;;;;62.95;28.48;;;;;;;-2.20;100.00;103266.00;5014660;28;20410;-76
2022/01/11 08:01:59;;;;;;;64.93;28.58;;;;;;;-2.12;100.00;103271.31;5014955;28;20030;-72
2022/01/11 08:04:25;;;;;;;63.20;28.83;;;;;;;-2.07;100.00;103285.78;5014770;28;20037;-74
2022/01/11 08:06:50;;;;;;;57.72;27.95;;;;;;;-2.04;100.00;103269.84;4997098;28;20073;-78
2022/01/11 08:09:15;;;;;;;61.83;28.50;;;;;;;-1.85;100.00;103297.41;5014353;28;20121;-78
2022/01/11 08:11:41;;;;;;;59.25;27.30;;;;;;;-1.83;100.00;103277.19;5014484;28;20049;-74
2022/01/11 08:14:07;;;;;;;56.55;26.80;;;;;;;-1.71;100.00;103292.72;5014549;28;20428;-85
2022/01/11 08:16:32;;;;;;;54.95;26.38;;;;;;;-1.63;100.00;103298.84;5014591;28;20041;-83
2022/01/11 08:18:57;;;;;;;57.05;26.67;;;;;;;-1.57;100.00;103303.22;5014541;28;20053;-86
2022/01/11 08:21:23;;;;;;;55.33;26.83;;;;;;;-1.51;100.00;103304.22;5014634;28;20022;-86
2022/01/11 08:23:48;;;;;;;56.05;27.23;;;;;;;-1.52;100.00;103292.38;5014236;28;20366;-86
2022/01/11 08:26:13;;;;;;;54.28;26.17;;;;;;;-1.34;100.00;103297.09;4996719;28;20038;-86
2022/01/11 08:28:39;;;;;;;49.75;25.52;;;;;;;-1.26;100.00;103299.81;5014248;28;20026;-87
2022/01/11 08:31:05;;;;;;;51.75;25.08;;;;;;;-1.19;99.72;103305.06;5014266;28;20022;-78
2022/01/11 08:33:30;;;;;;;49.35;24.50;;;;;;;-1.18;99.40;103289.06;5014052;28;20109;-84
2022/01/11 08:35:56;;;;;;;48.95;24.85;;;;;;;-1.06;98.74;103306.25;4996571;28;20046;-79
2022/01/11 08:38:21;;;;;;;46.88;24.75;;;;;;;-1.06;98.48;103287.63;5014134;28;20089;-86
2022/01/11 08:40:46;;;;;;;45.08;24.80;;;;;;;-0.99;98.20;103287.81;5013826;28;20028;-77
2022/01/11 08:43:14;;;;;;;41.65;22.48;;;;;;;-0.81;98.23;103305.16;5014123;28;20437;-82
2022/01/11 08:45:40;;;;;;;44.20;22.95;;;;;;;-0.77;97.59;103299.34;4996378;28;20026;-85
2022/01/11 08:48:06;;;;;;;46.40;23.13;;;;;;;-0.73;97.64;103306.19;4996211;28;20037;-85
2022/01/11 08:50:31;;;;;;;43.03;23.45;;;;;;;-0.69;96.92;103299.50;5014151;28;20470;-87
2022/01/11 08:52:57;;;;;;;45.80;22.25;;;;;;;-0.65;96.93;103302.16;5013868;28;20049;-86
2022/01/11 08:55:23;;;;;;;42.10;21.77;;;;;;;-0.91;96.66;103249.94;5013528;28;20466;-86
2022/01/11 08:57:49;;;;;;;43.45;21.88;;;;;;;-0.62;97.54;103287.00;5013838;28;20026;-83
2022/01/11 09:00:18;;;;;;;42.78;22.23;;;;;;;-0.59;96.73;103286.19;5013673;28;20029;-82
2022/01/11 09:02:50;;;;;;;42.15;21.70;;;;;;;-0.72;96.91;103253.78;4996112;28;20121;-83
2022/01/11 09:05:16;;;;;;;40.63;20.80;;;;;;;-0.36;96.40;103315.50;4995658;28;20422;-82
2022/01/11 09:07:42;;;;;;;40.40;22.10;;;;;;;-0.49;96.55;103278.00;5013516;28;20116;-84
2022/01/11 09:10:09;;;;;;;39.33;20.42;;;;;;;-0.87;95.81;103209.50;5013468;28;20488;-82
2022/01/11 09:12:35;;;;;;;44.70;23.02;;;;;;;-0.63;95.91;103241.28;5013394;28;20026;-83
2022/01/11 09:15:08;;;;;;;44.10;23.10;;;;;;;-0.09;95.51;103327.09;5013212;28;20018;-85
2022/01/11 09:17:45;;;;;;;44.03;22.65;;;;;;;-0.53;95.59;103233.06;5013619;28;20022;-83
2022/01/11 09:20:21;;;;;;;38.78;21.52;;;;;;;-0.28;95.55;103256.44;5013443;28;20029;-85
2022/01/11 09:22:47;;;;;;;41.55;22.17;;;;;;;0.11;94.93;103313.13;5013391;28;20470;-90
2022/01/11 09:25:18;;;;;;;39.03;20.85;;;;;;;0.16;94.89;103313.19;5013901;28;20037;-86
2022/01/11 09:27:44;;;;;;;37.67;20.90;;;;;;;0.21;94.87;103315.03;5013411;28;20036;-83
2022/01/11 09:30:11;;;;;;;37.63;21.95;;;;;;;0.26;94.63;103325.25;5013248;28;20033;-89
2022/01/11 09:32:37;;;;;;;36.90;20.52;;;;;;;0.32;94.71;103322.84;5013452;28;20041;-87
2022/01/11 09:35:05;;;;;;;42.47;21.90;;;;;;;0.07;94.63;103269.81;5013263;28;20033;-86
2022/01/11 09:37:31;;;;;;;41.60;22.10;;;;;;;0.43;94.26;103331.53;5013138;28;20026;-85
2022/01/11 09:39:56;;;;;;;45.33;25.98;;;;;;;0.18;94.34;103279.38;5013103;28;20458;-86
2022/01/11 09:42:23;;;;;;;47.75;26.42;;;;;;;0.51;93.85;103331.69;5013174;28;20105;-85
2022/01/11 09:44:49;;;;;;;44.80;25.63;;;;;;;0.26;93.95;103287.16;5013134;28;20137;-84
2022/01/11 09:47:32;;;;;;;46.17;25.55;;;;;;;0.55;93.65;103336.84;5013183;28;20033;-84
2022/01/11 09:50:05;;;;;;;45.70;25.88;;;;;;;0.60;93.58;103344.56;5013032;28;20038;-84
2022/01/11 09:52:31;;;;;;;46.25;24.10;;;;;;;-0.25;93.51;103203.16;5013118;28;20021;-84
2022/01/11 09:54:56;;;;;;;39.92;24.23;;;;;;;0.71;93.90;103343.09;5012851;28;20374;-86
2022/01/11 09:57:22;;;;;;;38.25;23.08;;;;;;;0.65;93.88;103327.69;5012970;28;20109;-86
2022/01/11 09:59:49;;;;;;;38.33;22.42;;;;;;;0.84;93.53;103345.00;5013134;28;20045;-87
2022/01/11 10:02:14;;;;;;;34.75;20.33;;;;;;;0.34;92.97;103251.72;5012537;28;20022;-84
2022/01/11 10:04:40;;;;;;;39.15;20.77;;;;;;;0.94;92.92;103350.25;5012724;28;20032;-84
2022/01/11 10:07:08;;;;;;;37.72;21.17;;;;;;;1.02;92.81;103354.66;5012916;28;20018;-85
2022/01/11 10:09:49;;;;;;;34.70;20.25;;;;;;;0.90;92.69;103318.84;5012637;28;20457;-82
2022/01/11 10:12:22;;;;;;;35.80;21.17;;;;;;;-0.39;92.08;103102.22;5007593;23;20062;-90
2022/01/11 10:14:55;;;;;;;35.42;20.63;;;;;;;0.73;91.93;103282.06;4993177;28;20042;-83
2022/01/11 10:17:45;;;;;;;33.33;20.75;;;;;;;0.50;91.94;103233.38;4995591;28;20065;-85
2022/01/11 10:20:22;;;;;;;34.08;19.77;;;;;;;0.94;90.78;103302.78;4997084;28;20446;-87
2022/01/11 10:22:55;;;;;;;36.05;21.88;;;;;;;1.27;90.93;103352.50;4997251;28;20097;-84
2022/01/11 10:25:20;;;;;;;37.17;20.98;;;;;;;1.29;91.52;103340.69;4996967;28;20105;-86
2022/01/11 10:28:04;;;;;;;32.00;20.55;;;;;;;1.35;91.64;103339.06;4996951;28;20098;-83
2022/01/11 10:30:33;;;;;;;34.80;21.50;;;;;;;1.39;91.37;103345.94;5016408;28;20496;-86
2022/01/11 10:33:01;;;;;;;34.15;20.92;;;;;;;1.14;91.42;103292.91;5016382;28;20473;-86
2022/01/11 10:35:42;;;;;;;38.53;20.95;;;;;;;1.33;90.71;103307.66;5016634;28;20033;-93
2022/01/11 10:38:09;;;;;;;31.90;19.60;;;;;;;1.40;91.34;103311.16;5017835;28;20092;-89
2022/01/11 10:40:41;;;;;;;34.92;19.75;;;;;;;1.06;90.79;103252.09;5016879;28;20033;-92
2022/01/11 10:43:09;;;;;;;30.38;17.58;;;;;;;0.89;90.44;103227.25;5017073;28;20125;-85
2022/01/11 10:45:46;;;;;;;29.73;17.80;;;;;;;1.59;90.72;103356.41;5016878;28;20022;-90
2022/01/11 10:48:24;;;;;;;31.80;18.17;;;;;;;1.30;90.80;103302.50;5016482;28;20030;-82
2022/01/11 10:50:56;;;;;;;29.13;18.20;;;;;;;1.43;91.36;103318.81;5016289;28;20389;-82
2022/01/11 10:53:38;;;;;;;31.73;17.70;;;;;;;1.58;91.50;103341.97;5016108;28;20026;-86
2022/01/11 10:56:04;;;;;;;29.17;17.40;;;;;;;1.64;90.99;103353.94;5016099;28;20080;-87
2022/01/11 10:58:35;;;;;;;31.20;18.30;;;;;;;1.39;90.92;103299.25;5015827;28;20026;-85
2022/01/11 11:01:02;;;;;;;27.17;16.38;;;;;;;1.71;91.29;103340.44;5016077;28;20385;-84
2022/01/11 11:03:31;;;;;;;31.35;17.08;;;;;;;1.44;90.89;103289.97;5017537;28;20113;-90
2022/01/11 11:06:10;;;;;;;31.95;18.27;;;;;;;1.57;91.37;103304.59;5018872;28;20142;-91